createdAt,value
2023-04-03T00:00:52.857Z,100986.44
2023-04-03T00:01:33.967Z,100986.00
2023-04-03T00:02:14.140Z,100972.16
2023-04-03T00:02:54.073Z,100965.41
2023-04-03T00:03:34.117Z,100985.63
2023-04-03T00:04:13.973Z,100990.44
2023-04-03T00:04:54.057Z,100989.25
2023-04-03T00:05:34.953Z,100965.63
2023-04-03T00:06:16.114Z,100975.91
2023-04-03T00:06:56.964Z,100965.75
2023-04-03T00:07:37.031Z,100978.47
2023-04-03T00:08:18.028Z,100979.41
2023-04-03T00:08:59.040Z,100989.38
2023-04-03T00:09:46.945Z,100988.13
2023-04-03T00:10:20.890Z,100983.41
2023-04-03T00:11:07.938Z,100965.69
2023-04-03T00:11:41.736Z,100994.72
2023-04-03T00:12:28.966Z,100999.63
2023-04-03T00:13:06.421Z,100985.50
2023-04-03T00:13:47.979Z,100998.69
2023-04-03T00:14:22.049Z,100984.31
2023-04-03T00:14:55.805Z,100987.31
2023-04-03T00:15:36.943Z,100991.72
2023-04-03T00:16:11.317Z,100975.28
2023-04-03T00:16:45.792Z,101000.56
2023-04-03T00:17:26.975Z,100999.56
2023-04-03T00:18:01.127Z,100974.00
2023-04-03T00:18:34.754Z,101004.03
2023-04-03T00:19:16.409Z,100969.75
2023-04-03T00:19:50.036Z,100994.31
2023-04-03T00:20:23.820Z,101000.38
2023-04-03T00:21:04.973Z,100990.06
2023-04-03T00:21:39.012Z,100992.72
2023-04-03T00:22:12.692Z,100985.22
2023-04-03T00:22:52.924Z,100984.31
2023-04-03T00:23:27.098Z,100997.97
2023-04-03T00:24:00.895Z,100978.53
2023-04-03T00:24:40.960Z,101010.16
2023-04-03T00:25:16.028Z,101003.03
2023-04-03T00:25:49.676Z,100991.63
2023-04-03T00:26:29.939Z,100988.41
2023-04-03T00:27:04.033Z,101000.91
2023-04-03T00:27:39.212Z,101008.31
2023-04-03T00:28:19.942Z,101010.66
2023-04-03T00:28:54.059Z,100989.34
2023-04-03T00:29:28.701Z,101014.03
2023-04-03T00:30:09.934Z,100985.03
2023-04-03T00:30:44.079Z,101022.88
2023-04-03T00:31:18.546Z,101010.47
2023-04-03T00:31:58.913Z,101013.59
2023-04-03T00:32:33.203Z,100997.22
2023-04-03T00:33:07.145Z,101020.03
2023-04-03T00:33:47.911Z,100992.75
2023-04-03T00:34:22.161Z,101011.78
2023-04-03T00:34:55.806Z,101005.44
2023-04-03T00:35:37.005Z,101004.28
2023-04-03T00:36:18.080Z,101002.13
2023-04-03T00:36:52.537Z,101001.44
2023-04-03T00:37:32.919Z,101021.22
2023-04-03T00:38:07.317Z,100998.94
2023-04-03T00:38:41.721Z,101005.91
2023-04-03T00:39:22.919Z,100991.63
2023-04-03T00:39:57.059Z,101020.63
2023-04-03T00:40:45.931Z,101020.41
2023-04-03T00:41:26.547Z,101004.59
2023-04-03T00:42:06.906Z,101013.16
2023-04-03T00:42:49.041Z,101014.34
2023-04-03T00:43:31.903Z,101000.56
2023-04-03T00:44:51.053Z,101026.63
2023-04-03T00:45:42.930Z,101026.13
2023-04-03T00:46:23.973Z,101001.69
2023-04-03T00:46:58.048Z,100987.50
2023-04-03T00:47:32.441Z,100990.88
2023-04-03T00:48:17.924Z,101000.16
2023-04-03T00:48:54.975Z,100993.69
2023-04-03T00:49:29.235Z,101025.38
2023-04-03T00:50:09.875Z,101001.31
2023-04-03T00:50:47.037Z,101031.06
2023-04-03T00:51:34.948Z,101022.41
2023-04-03T00:52:21.196Z,101009.53
2023-04-03T00:53:01.901Z,101014.22
2023-04-03T00:53:48.076Z,101006.63
2023-04-03T00:54:29.878Z,101007.25
2023-04-03T00:55:15.257Z,101030.72
2023-04-03T00:55:56.885Z,101023.06
2023-04-03T00:56:44.947Z,101021.66
2023-04-03T00:57:19.417Z,101020.72
2023-04-03T00:58:07.945Z,101009.75
2023-04-03T00:59:08.880Z,101011.78
2023-04-03T01:00:08.898Z,101001.06
2023-04-03T01:00:49.964Z,101009.88
2023-04-03T01:01:40.936Z,101008.00
2023-04-03T01:02:29.021Z,101027.38
2023-04-03T01:03:03.105Z,101018.69
2023-04-03T01:03:49.913Z,101008.16
2023-04-03T01:04:42.194Z,101026.63
2023-04-03T01:05:29.902Z,101028.19
2023-04-03T01:06:04.017Z,101018.66
2023-04-03T01:06:50.896Z,100998.22
2023-04-03T01:07:38.974Z,101032.94
2023-04-03T01:08:32.891Z,101004.66
2023-04-03T01:09:26.893Z,100985.06
2023-04-03T01:10:24.914Z,101013.09
2023-04-03T01:11:18.914Z,100998.91
2023-04-03T01:12:46.657Z,101032.94
2023-04-03T01:13:45.914Z,101042.50
2023-04-03T01:14:39.891Z,101029.34
2023-04-03T01:15:42.887Z,101028.47
2023-04-03T01:16:38.904Z,101018.75
2023-04-03T01:17:53.955Z,101046.78
2023-04-03T01:18:51.883Z,101029.59
2023-04-03T01:19:46.906Z,101026.13
2023-04-03T01:20:46.889Z,101039.03
2023-04-03T01:22:06.877Z,101041.81
2023-04-03T01:23:15.900Z,101012.22
2023-04-03T01:24:23.907Z,101040.19
2023-04-03T01:25:17.874Z,101037.25
2023-04-03T01:26:12.864Z,101025.25
2023-04-03T01:27:06.901Z,101032.44
2023-04-03T01:28:00.884Z,101029.81
2023-04-03T01:28:42.923Z,101031.31
2023-04-03T01:29:22.973Z,101036.00
2023-04-03T01:30:02.868Z,101026.19
2023-04-03T01:31:11.249Z,101012.09
2023-04-03T01:31:57.942Z,101022.28
2023-04-03T01:32:37.979Z,101049.63
2023-04-03T01:33:17.852Z,101013.13
2023-04-03T01:33:58.882Z,101046.16
2023-04-03T01:34:35.009Z,101028.31
2023-04-03T01:35:22.838Z,101035.50
2023-04-03T01:35:56.973Z,101024.22
2023-04-03T01:36:43.856Z,101015.56
2023-04-03T01:37:18.197Z,101044.66
2023-04-03T01:38:04.880Z,101028.59
2023-04-03T01:38:39.151Z,101026.91
2023-04-03T01:39:19.877Z,101035.38
2023-04-03T01:39:59.936Z,101024.09
2023-04-03T01:40:40.847Z,101022.66
2023-04-03T01:41:22.053Z,101055.66
2023-04-03T01:42:02.841Z,101033.78
2023-04-03T01:42:42.937Z,101019.38
2023-04-03T01:43:22.852Z,101046.50
2023-04-03T01:44:02.957Z,101023.44
2023-04-03T01:44:42.908Z,101041.06
2023-04-03T01:45:22.989Z,101036.94
2023-04-03T01:46:02.909Z,101029.56
2023-04-03T01:46:44.038Z,101050.41
2023-04-03T01:47:24.864Z,101023.13
2023-04-03T01:48:04.931Z,101029.47
2023-04-03T01:48:45.844Z,101036.63
2023-04-03T01:49:25.948Z,101030.03
2023-04-03T01:50:05.870Z,101046.38
2023-04-03T01:50:46.004Z,101047.44
2023-04-03T01:51:26.888Z,101053.06
2023-04-03T01:52:06.916Z,101047.75
2023-04-03T01:52:47.841Z,101032.88
2023-04-03T01:53:27.967Z,101061.78
2023-04-03T01:54:08.879Z,101068.66
2023-04-03T01:54:48.914Z,101055.06
2023-04-03T01:55:29.846Z,101059.47
2023-04-03T01:56:10.942Z,101063.19
2023-04-03T01:56:51.933Z,101056.81
2023-04-03T01:57:32.985Z,101056.59
2023-04-03T01:58:12.831Z,101045.94
2023-04-03T01:58:53.019Z,101041.16
2023-04-03T01:59:33.915Z,101053.09
2023-04-03T02:00:14.949Z,101049.31
2023-04-03T02:00:55.883Z,101068.28
2023-04-03T02:01:36.058Z,101021.09
2023-04-03T02:03:18.834Z,101052.47
2023-04-03T02:03:53.026Z,101061.22
2023-04-03T02:04:40.829Z,101057.16
2023-04-03T02:05:14.963Z,101066.06
2023-04-03T02:06:01.865Z,101070.84
2023-04-03T02:06:35.975Z,101065.28
2023-04-03T02:07:22.818Z,101064.06
2023-04-03T02:07:57.327Z,101050.16
2023-04-03T02:08:43.817Z,101066.28
2023-04-03T02:09:17.997Z,101059.81
2023-04-03T02:10:04.864Z,101049.69
2023-04-03T02:10:39.065Z,101033.06
2023-04-03T02:11:25.838Z,101052.06
2023-04-03T02:12:01.105Z,101054.25
2023-04-03T02:12:48.838Z,101055.91
2023-04-03T02:13:23.951Z,101044.00
2023-04-03T02:14:11.822Z,101075.75
2023-04-03T02:14:46.310Z,101035.66
2023-04-03T02:15:33.828Z,101056.00
2023-04-03T02:16:14.974Z,101050.78
2023-04-03T02:16:55.985Z,101029.56
2023-04-03T02:17:36.024Z,101047.66
2023-04-03T02:18:16.864Z,101077.06
2023-04-03T02:18:57.041Z,101047.41
2023-04-03T02:19:37.819Z,101071.16
2023-04-03T02:20:18.972Z,101065.06
2023-04-03T02:20:58.780Z,101050.44
2023-04-03T02:21:38.929Z,101074.53
2023-04-03T02:22:18.807Z,101050.88
2023-04-03T02:22:58.949Z,101065.72
2023-04-03T02:23:39.798Z,101074.66
2023-04-03T02:24:19.908Z,101045.63
2023-04-03T02:25:00.836Z,101073.94
2023-04-03T02:25:41.910Z,101069.56
2023-04-03T02:26:23.799Z,101073.38
2023-04-03T02:27:04.947Z,101080.22
2023-04-03T02:27:45.814Z,101055.53
2023-04-03T02:28:25.866Z,101041.47
2023-04-03T02:29:05.791Z,101061.00
2023-04-03T02:29:45.901Z,101060.69
2023-04-03T02:30:26.813Z,101066.63
2023-04-03T02:31:07.589Z,101083.25
2023-04-03T02:31:48.801Z,101079.97
2023-04-03T02:32:29.033Z,101030.66
2023-04-03T02:33:08.800Z,101084.59
2023-04-03T02:33:48.931Z,101071.22
2023-04-03T02:34:28.813Z,101088.56
2023-04-03T02:35:08.961Z,101055.69
2023-04-03T02:35:49.948Z,101065.13
2023-04-03T02:36:31.797Z,101070.16
2023-04-03T02:37:13.814Z,101068.81
2023-04-03T02:37:53.930Z,101074.31
2023-04-03T02:38:34.820Z,101089.06
2023-04-03T02:39:14.967Z,101033.94
2023-04-03T02:39:55.770Z,101081.50
2023-04-03T02:40:36.075Z,101052.13
2023-04-03T02:41:18.787Z,101075.75
2023-04-03T02:41:58.866Z,101055.66
2023-04-03T02:42:39.790Z,101078.94
2023-04-03T02:43:19.905Z,101071.66
2023-04-03T02:44:00.793Z,101087.50
2023-04-03T02:44:41.218Z,101079.38
2023-04-03T02:45:21.774Z,101052.97
2023-04-03T02:46:02.015Z,101082.03
2023-04-03T02:46:42.764Z,101086.53
2023-04-03T02:47:22.900Z,101086.38
2023-04-03T02:48:03.835Z,101086.47
2023-04-03T02:48:44.897Z,101088.81
2023-04-03T02:49:24.797Z,101088.09
2023-04-03T02:50:04.988Z,101064.72
2023-04-03T02:50:44.809Z,101037.31
2023-04-03T02:51:24.946Z,101037.97
2023-04-03T02:52:05.786Z,101085.41
2023-04-03T02:52:45.842Z,101089.41
2023-04-03T02:53:26.764Z,101088.19
2023-04-03T02:54:06.875Z,101078.53
2023-04-03T02:54:47.788Z,101083.06
2023-04-03T02:55:27.876Z,101085.94
2023-04-03T02:56:08.833Z,101093.63
2023-04-03T02:56:48.985Z,101077.97
2023-04-03T02:57:29.846Z,101074.38
2023-04-03T02:58:09.935Z,101092.31
2023-04-03T02:58:50.750Z,101085.69
2023-04-03T02:59:31.247Z,101087.41
2023-04-03T03:00:12.838Z,101100.41
2023-04-03T03:00:52.906Z,101060.09
2023-04-03T03:01:35.761Z,101073.50
2023-04-03T03:02:16.881Z,101078.63
2023-04-03T03:02:56.837Z,101073.59
2023-04-03T03:03:36.912Z,101094.47
2023-04-03T03:04:17.801Z,101068.63
2023-04-03T03:04:58.082Z,101093.38
2023-04-03T03:05:39.789Z,101097.19
2023-04-03T03:06:22.844Z,101067.50
2023-04-03T03:07:02.751Z,101076.13
2023-04-03T03:07:42.916Z,101036.25
2023-04-03T03:08:23.776Z,101082.78
2023-04-03T03:09:04.575Z,101084.38
2023-04-03T03:09:44.753Z,101094.88
2023-04-03T03:10:24.881Z,101095.53
2023-04-03T03:11:05.822Z,101088.53
2023-04-03T03:11:46.895Z,101089.81
2023-04-03T03:12:28.749Z,101086.38
2023-04-03T03:13:08.936Z,101071.78
2023-04-03T03:13:48.774Z,101079.88
2023-04-03T03:14:28.834Z,101088.56
2023-04-03T03:15:08.801Z,101071.66
2023-04-03T03:15:48.936Z,101074.97
2023-04-03T03:16:29.858Z,101082.94
2023-04-03T03:17:09.864Z,101059.91
2023-04-03T03:17:50.856Z,101088.72
2023-04-03T03:18:31.465Z,101079.09
2023-04-03T03:19:11.726Z,101097.38
2023-04-03T03:19:51.878Z,101082.59
2023-04-03T03:20:32.756Z,101087.03
2023-04-03T03:21:12.819Z,101080.13
2023-04-03T03:21:52.836Z,101086.53
2023-04-03T03:22:33.868Z,101090.94
2023-04-03T03:23:13.752Z,101104.09
2023-04-03T03:23:53.891Z,101085.72
2023-04-03T03:24:34.760Z,101095.94
2023-04-03T03:25:15.972Z,101055.47
2023-04-03T03:25:56.769Z,101099.72
2023-04-03T03:26:36.888Z,101064.38
2023-04-03T03:27:16.756Z,101100.50
2023-04-03T03:27:56.836Z,101082.78
2023-04-03T03:28:37.905Z,101093.28
2023-04-03T03:29:17.923Z,101102.19
2023-04-03T03:29:58.729Z,101093.81
2023-04-03T03:30:38.816Z,101046.22
2023-04-03T03:31:19.819Z,101068.91
2023-04-03T03:31:59.793Z,101087.50
2023-04-03T03:32:40.839Z,101103.47
2023-04-03T03:33:20.883Z,101078.34
2023-04-03T03:34:00.731Z,101084.84
2023-04-03T03:34:40.910Z,101076.69
2023-04-03T03:35:20.768Z,101082.72
2023-04-03T03:36:01.860Z,101093.88
2023-04-03T03:36:42.740Z,101095.25
2023-04-03T03:37:22.852Z,101095.03
2023-04-03T03:38:02.746Z,101066.25
2023-04-03T03:38:42.879Z,101080.06
2023-04-03T03:39:22.736Z,101109.59
2023-04-03T03:40:03.541Z,101099.88
2023-04-03T03:40:44.702Z,101094.44
2023-04-03T03:41:24.862Z,101095.25
2023-04-03T03:42:04.768Z,101074.31
2023-04-03T03:42:44.860Z,101099.06
2023-04-03T03:43:25.750Z,101104.44
2023-04-03T03:44:05.917Z,101093.59
2023-04-03T03:44:47.762Z,101088.28
2023-04-03T03:45:27.801Z,101108.19
2023-04-03T03:46:07.712Z,101114.00
2023-04-03T03:46:47.858Z,101117.94
2023-04-03T03:47:27.748Z,101106.78
2023-04-03T03:48:08.824Z,101111.00
2023-04-03T03:48:49.712Z,101110.66
2023-04-03T03:49:30.853Z,101095.03
2023-04-03T03:50:11.696Z,101099.50
2023-04-03T03:50:51.885Z,101091.38
2023-04-03T03:51:32.717Z,101104.38
2023-04-03T03:52:12.859Z,101103.09
2023-04-03T03:52:53.685Z,101112.72
2023-04-03T03:53:33.802Z,101119.16
2023-04-03T03:54:14.806Z,101113.81
2023-04-03T03:54:54.885Z,101101.00
2023-04-03T03:55:34.985Z,101120.78
2023-04-03T03:56:16.039Z,101079.78
2023-04-03T03:56:56.770Z,101103.72
2023-04-03T03:57:36.825Z,101116.19
2023-04-03T03:58:17.702Z,101120.59
2023-04-03T03:58:57.799Z,101108.34
2023-04-03T03:59:37.744Z,101107.72
2023-04-03T04:00:18.805Z,101120.72
2023-04-03T04:00:59.745Z,101091.84
2023-04-03T04:01:40.969Z,101114.75
2023-04-03T04:02:20.765Z,101115.38
2023-04-03T04:03:01.780Z,101121.03
2023-04-03T04:03:42.911Z,101070.44
2023-04-03T04:04:22.998Z,101121.00
2023-04-03T04:05:03.706Z,101099.94
2023-04-03T04:05:43.749Z,101115.81
2023-04-03T04:06:24.699Z,101119.00
2023-04-03T04:07:04.860Z,101117.53
2023-04-03T04:07:44.717Z,101105.25
2023-04-03T04:08:24.780Z,101109.63
2023-04-03T04:09:05.722Z,101106.53
2023-04-03T04:09:46.056Z,101111.22
2023-04-03T04:10:25.805Z,101095.75
2023-04-03T04:11:05.794Z,101127.00
2023-04-03T04:11:47.672Z,101113.38
2023-04-03T04:12:27.803Z,101121.09
2023-04-03T04:13:08.709Z,101110.66
2023-04-03T04:13:48.792Z,101126.59
2023-04-03T04:14:28.715Z,101119.22
2023-04-03T04:15:09.808Z,101135.66
2023-04-03T04:15:50.713Z,101130.72
2023-04-03T04:16:30.870Z,101117.69
2023-04-03T04:17:11.688Z,101126.00
2023-04-03T04:17:51.926Z,101098.47
2023-04-03T04:18:32.653Z,101127.84
2023-04-03T04:19:12.800Z,101137.66
2023-04-03T04:19:53.722Z,101138.44
2023-04-03T04:20:33.856Z,101120.25
2023-04-03T04:21:14.732Z,101137.03
2023-04-03T04:21:54.789Z,101141.22
2023-04-03T04:22:34.679Z,101113.00
2023-04-03T04:23:15.874Z,101135.16
2023-04-03T04:23:55.690Z,101142.44
2023-04-03T04:24:37.335Z,101137.41
2023-04-03T04:25:19.719Z,101132.72
2023-04-03T04:25:59.811Z,101131.63
2023-04-03T04:26:39.840Z,101130.44
2023-04-03T04:27:19.862Z,101119.84
2023-04-03T04:27:59.704Z,101144.00
2023-04-03T04:28:39.843Z,101123.47
2023-04-03T04:29:20.738Z,101134.72
2023-04-03T04:30:00.901Z,101143.63
2023-04-03T04:30:40.717Z,101128.94
2023-04-03T04:31:20.886Z,101141.97
2023-04-03T04:32:00.667Z,101148.69
2023-04-03T04:32:41.234Z,101142.44
2023-04-03T04:33:22.683Z,101143.16
2023-04-03T04:34:03.801Z,101138.38
2023-04-03T04:34:44.724Z,101129.28
2023-04-03T04:35:24.837Z,101117.75
2023-04-03T04:36:04.755Z,101136.41
2023-04-03T04:36:44.998Z,101140.47
2023-04-03T04:37:25.659Z,101129.31
2023-04-03T04:38:06.370Z,101142.63
2023-04-03T04:38:47.654Z,101146.00
2023-04-03T04:39:27.876Z,101136.28
2023-04-03T04:40:08.709Z,101139.38
2023-04-03T04:40:49.845Z,101149.94
2023-04-03T04:41:31.682Z,101148.56
2023-04-03T04:42:14.641Z,101143.34
2023-04-03T04:42:57.846Z,101149.63
2023-04-03T04:43:37.819Z,101144.81
2023-04-03T04:44:19.662Z,101145.91
2023-04-03T04:44:59.829Z,101147.44
2023-04-03T04:45:40.658Z,101142.84
2023-04-03T04:46:21.166Z,101152.63
2023-04-03T04:47:02.678Z,101143.22
2023-04-03T04:47:42.909Z,101153.81
2023-04-03T04:48:23.688Z,101150.47
2023-04-03T04:49:03.787Z,101155.31
2023-04-03T04:49:44.669Z,101141.78
2023-04-03T04:50:24.772Z,101156.28
2023-04-03T04:51:04.662Z,101143.84
2023-04-03T04:51:52.077Z,101156.13
2023-04-03T04:52:32.680Z,101158.28
2023-04-03T04:53:12.855Z,101147.56
2023-04-03T04:53:55.938Z,101153.69
2023-04-03T04:54:37.235Z,101143.16
2023-04-03T04:55:19.103Z,101130.22
2023-04-03T04:56:01.307Z,101145.50
2023-04-03T04:56:42.814Z,101155.63
2023-04-03T04:57:22.870Z,101132.00
2023-04-03T04:58:03.647Z,101161.13
2023-04-03T04:58:43.740Z,101162.88
2023-04-03T04:59:24.783Z,101162.44
2023-04-03T05:00:04.839Z,101142.81
2023-04-03T05:00:44.722Z,101156.84
2023-04-03T05:01:25.990Z,101165.66
2023-04-03T05:02:07.765Z,101163.28
2023-04-03T05:02:47.814Z,101147.22
2023-04-03T05:03:29.740Z,101154.69
2023-04-03T05:04:10.771Z,101166.69
2023-04-03T05:04:51.708Z,101168.56
2023-04-03T05:05:31.861Z,101164.38
2023-04-03T05:06:12.771Z,101166.25
2023-04-03T05:06:53.809Z,101167.38
2023-04-03T05:07:34.631Z,101163.59
2023-04-03T05:08:14.739Z,101168.59
2023-04-03T05:08:54.648Z,101172.66
2023-04-03T05:09:34.848Z,101167.19
2023-04-03T05:10:16.730Z,101153.03
2023-04-03T05:10:56.776Z,101173.19
2023-04-03T05:11:37.717Z,101173.84
2023-04-03T05:12:17.800Z,101151.72
2023-04-03T05:12:58.713Z,101173.31
2023-04-03T05:13:39.708Z,101168.78
2023-04-03T05:14:23.996Z,101177.50
2023-04-03T05:15:04.882Z,101177.78
2023-04-03T05:15:44.710Z,101174.16
2023-04-03T05:16:24.938Z,101171.38
2023-04-03T05:17:05.647Z,101167.97
2023-04-03T05:17:46.220Z,101182.59
2023-04-03T05:18:27.816Z,101179.88
2023-04-03T05:19:07.756Z,101170.56
2023-04-03T05:19:47.662Z,101177.94
2023-04-03T05:20:27.741Z,101168.72
2023-04-03T05:21:07.671Z,101167.03
2023-04-03T05:21:47.859Z,101178.56
2023-04-03T05:22:28.668Z,101184.94
2023-04-03T05:23:09.785Z,101162.59
2023-04-03T05:23:49.625Z,101158.91
2023-04-03T05:24:29.746Z,101174.16
2023-04-03T05:25:10.629Z,101166.06
2023-04-03T05:25:51.107Z,101186.69
2023-04-03T05:26:34.018Z,101183.63
2023-04-03T05:27:17.862Z,101176.81
2023-04-03T05:27:58.657Z,101149.47
2023-04-03T05:28:38.651Z,101182.09
2023-04-03T05:29:19.657Z,101174.84
2023-04-03T05:30:01.039Z,101181.06
2023-04-03T05:30:41.603Z,101176.41
2023-04-03T05:31:21.854Z,101182.34
2023-04-03T05:32:03.811Z,101192.25
2023-04-03T05:32:43.891Z,101179.88
2023-04-03T05:33:23.658Z,101177.53
2023-04-03T05:34:03.710Z,101190.25
2023-04-03T05:34:44.610Z,101184.34
2023-04-03T05:35:24.773Z,101174.91
2023-04-03T05:36:11.692Z,101187.66
2023-04-03T05:36:52.676Z,101171.69
2023-04-03T05:37:33.600Z,101193.34
2023-04-03T05:38:14.048Z,101191.81
2023-04-03T05:38:55.637Z,101188.31
2023-04-03T05:39:35.789Z,101202.13
2023-04-03T05:40:18.578Z,101185.19
2023-04-03T05:40:58.796Z,101188.53
2023-04-03T05:41:39.601Z,101191.69
2023-04-03T05:42:19.699Z,101192.84
2023-04-03T05:43:00.789Z,101197.50
2023-04-03T05:43:40.882Z,101162.31
2023-04-03T05:44:20.684Z,101187.38
2023-04-03T05:45:01.710Z,101197.94
2023-04-03T05:45:43.656Z,101168.50
2023-04-03T05:46:26.819Z,101184.66
2023-04-03T05:47:07.664Z,101179.13
2023-04-03T05:47:48.365Z,101206.81
2023-04-03T05:48:30.637Z,101196.47
2023-04-03T05:49:13.565Z,101197.44
2023-04-03T05:49:54.597Z,101186.78
2023-04-03T05:50:34.673Z,101199.53
2023-04-03T05:51:21.583Z,101202.13
2023-04-03T05:52:01.856Z,101191.09
2023-04-03T05:52:45.639Z,101211.78
2023-04-03T05:53:37.626Z,101203.22
2023-04-03T05:54:43.668Z,101206.81
2023-04-03T05:55:37.733Z,101191.56
2023-04-03T05:56:31.716Z,101184.22
2023-04-03T05:57:25.636Z,101177.31
2023-04-03T05:58:19.645Z,101204.38
2023-04-03T05:58:59.722Z,101208.03
2023-04-03T05:59:40.908Z,101188.97
2023-04-03T06:00:22.644Z,101209.31
2023-04-03T06:01:02.751Z,101205.94
2023-04-03T06:01:43.583Z,101207.75
2023-04-03T06:02:28.824Z,101200.91
2023-04-03T06:03:09.700Z,101207.75
2023-04-03T06:03:49.846Z,101218.47
2023-04-03T06:04:29.681Z,101189.22
2023-04-03T06:05:12.536Z,101213.34
2023-04-03T06:05:53.594Z,101208.06
2023-04-03T06:07:06.593Z,101201.75
2023-04-03T06:08:00.570Z,101211.34
2023-04-03T06:08:54.623Z,101210.13
2023-04-03T06:09:48.564Z,101207.84
2023-04-03T06:10:42.575Z,101213.22
2023-04-03T06:11:36.628Z,101214.09
2023-04-03T06:12:30.606Z,101203.25
2023-04-03T06:13:24.593Z,101217.88
2023-04-03T06:14:18.551Z,101218.13
2023-04-03T06:15:05.743Z,101215.09
2023-04-03T06:15:41.296Z,101211.50
2023-04-03T06:16:28.615Z,101211.06
2023-04-03T06:17:02.838Z,101213.06
2023-04-03T06:17:50.590Z,101212.13
2023-04-03T06:18:25.103Z,101211.84
2023-04-03T06:19:14.545Z,101216.50
2023-04-03T06:19:48.646Z,101214.56
2023-04-03T06:20:29.614Z,101221.19
2023-04-03T06:21:09.656Z,101181.00
2023-04-03T06:21:49.571Z,101212.84
2023-04-03T06:22:31.092Z,101215.13
2023-04-03T06:23:12.557Z,101200.97
2023-04-03T06:23:52.952Z,101192.13
2023-04-03T06:24:33.550Z,101214.50
2023-04-03T06:25:27.564Z,101211.59
2023-04-03T06:26:08.542Z,101216.72
2023-04-03T06:26:50.787Z,101214.69
2023-04-03T06:27:30.532Z,101214.44
2023-04-03T06:28:11.176Z,101213.66
2023-04-03T06:28:51.544Z,101217.88
2023-04-03T06:29:31.733Z,101199.78
2023-04-03T06:30:14.572Z,101214.44
2023-04-03T06:30:54.707Z,101210.03
2023-04-03T06:31:28.832Z,101223.66
2023-04-03T06:32:15.583Z,101223.03
2023-04-03T06:32:51.245Z,101217.25
2023-04-03T06:33:38.530Z,101230.97
2023-04-03T06:34:12.843Z,101213.69
2023-04-03T06:35:14.541Z,101225.56
2023-04-03T06:36:14.665Z,101216.28
2023-04-03T06:37:08.546Z,101224.63
2023-04-03T06:38:02.546Z,101223.66
2023-04-03T06:38:56.582Z,101217.81
2023-04-03T06:39:50.532Z,101231.38
2023-04-03T06:40:44.849Z,101219.69
2023-04-03T06:41:34.786Z,101233.13
2023-04-03T06:42:09.618Z,101206.69
2023-04-03T06:42:57.525Z,101201.56
2023-04-03T06:43:34.979Z,101226.44
2023-04-03T06:44:23.550Z,101226.31
2023-04-03T06:44:57.652Z,101233.03
2023-04-03T06:45:44.519Z,101212.09
2023-04-03T06:46:27.732Z,101234.19
2023-04-03T06:47:08.531Z,101214.19
2023-04-03T06:47:48.649Z,101229.09
2023-04-03T06:48:28.519Z,101234.44
2023-04-03T06:49:08.743Z,101238.59
2023-04-03T06:49:49.556Z,101239.13
2023-04-03T06:50:29.701Z,101233.38
2023-04-03T06:51:10.562Z,101222.13
2023-04-03T06:52:04.533Z,101238.69
2023-04-03T06:52:45.574Z,101240.47
2023-04-03T06:53:26.626Z,101238.59
2023-04-03T06:54:08.504Z,101244.50
2023-04-03T06:54:48.642Z,101229.19
2023-04-03T06:55:34.520Z,101226.53
2023-04-03T06:56:15.900Z,101238.31
2023-04-03T06:56:56.588Z,101234.44
2023-04-03T06:57:37.826Z,101241.09
2023-04-03T06:58:17.722Z,101247.22
2023-04-03T06:58:58.699Z,101238.81
2023-04-03T06:59:39.516Z,101240.88
2023-04-03T07:00:21.007Z,101239.03
2023-04-03T07:01:01.557Z,101244.50
2023-04-03T07:01:41.914Z,101247.06
2023-04-03T07:02:22.623Z,101248.44
2023-04-03T07:03:02.704Z,101251.81
2023-04-03T07:03:44.533Z,101246.81
2023-04-03T07:04:24.818Z,101246.03
2023-04-03T07:05:04.506Z,101252.59
2023-04-03T07:05:45.865Z,101219.22
2023-04-03T07:06:26.543Z,101256.56
2023-04-03T07:07:06.890Z,101248.81
2023-04-03T07:07:47.486Z,101244.34
2023-04-03T07:08:27.583Z,101247.31
2023-04-03T07:09:08.628Z,101241.19
2023-04-03T07:09:49.047Z,101242.75
2023-04-03T07:10:30.511Z,101242.00
2023-04-03T07:11:11.597Z,101234.66
2023-04-03T07:11:52.557Z,101258.69
2023-04-03T07:12:32.670Z,101248.56
2023-04-03T07:13:13.713Z,101225.81
2023-04-03T07:13:53.620Z,101229.97
2023-04-03T07:14:33.507Z,101259.81
2023-04-03T07:15:15.526Z,101256.41
2023-04-03T07:15:56.521Z,101241.59
2023-04-03T07:16:36.833Z,101265.56
2023-04-03T07:17:17.481Z,101258.16
2023-04-03T07:17:57.814Z,101262.63
2023-04-03T07:18:38.482Z,101260.00
2023-04-03T07:19:19.500Z,101263.16
2023-04-03T07:20:03.053Z,101263.22
2023-04-03T07:20:43.625Z,101261.59
2023-04-03T07:21:24.620Z,101266.69
2023-04-03T07:22:04.595Z,101257.03
2023-04-03T07:22:44.502Z,101257.19
2023-04-03T07:23:25.629Z,101258.25
2023-04-03T07:24:06.655Z,101244.03
2023-04-03T07:24:47.647Z,101255.88
2023-04-03T07:25:28.503Z,101265.13
2023-04-03T07:26:09.016Z,101267.00
2023-04-03T07:26:50.466Z,101272.81
2023-04-03T07:27:30.583Z,101268.25
2023-04-03T07:28:11.467Z,101268.34
2023-04-03T07:28:51.807Z,101259.09
2023-04-03T07:29:31.470Z,101267.97
2023-04-03T07:30:12.651Z,101268.66
2023-04-03T07:30:58.525Z,101267.50
2023-04-03T07:31:39.709Z,101267.38
2023-04-03T07:32:20.484Z,101270.63
2023-04-03T07:33:00.733Z,101275.88
2023-04-03T07:33:41.633Z,101272.13
2023-04-03T07:34:21.620Z,101269.91
2023-04-03T07:35:03.893Z,101269.34
2023-04-03T07:35:45.574Z,101284.06
2023-04-03T07:36:29.612Z,101281.19
2023-04-03T07:37:11.055Z,101279.78
2023-04-03T07:37:51.471Z,101272.25
2023-04-03T07:38:31.647Z,101273.50
2023-04-03T07:39:11.517Z,101271.06
2023-04-03T07:39:52.542Z,101277.94
2023-04-03T07:40:33.474Z,101284.97
2023-04-03T07:41:14.562Z,101280.91
2023-04-03T07:41:54.525Z,101271.97
2023-04-03T07:42:34.604Z,101272.06
2023-04-03T07:43:14.466Z,101285.38
2023-04-03T07:43:55.844Z,101283.00
2023-04-03T07:44:36.520Z,101275.78
2023-04-03T07:45:18.343Z,101282.69
2023-04-03T07:45:59.559Z,101289.97
2023-04-03T07:46:39.786Z,101287.81
2023-04-03T07:47:21.508Z,101273.78
2023-04-03T07:48:01.755Z,101259.28
2023-04-03T07:48:42.462Z,101273.69
2023-04-03T07:49:24.176Z,101290.59
2023-04-03T07:50:05.546Z,101282.47
2023-04-03T07:50:48.558Z,101290.84
2023-04-03T07:51:28.447Z,101261.63
2023-04-03T07:52:09.986Z,101275.78
2023-04-03T07:52:51.526Z,101272.19
2023-04-03T07:53:31.749Z,101268.16
2023-04-03T07:54:12.460Z,101276.72
2023-04-03T07:54:52.831Z,101282.38
2023-04-03T07:55:34.951Z,101282.50
2023-04-03T07:56:16.615Z,101282.25
2023-04-03T07:56:57.544Z,101284.38
2023-04-03T07:57:38.477Z,101279.72
2023-04-03T07:58:22.464Z,101289.06
2023-04-03T07:59:02.722Z,101286.13
2023-04-03T07:59:43.504Z,101278.88